Denver, Colorado
Traffic Map
Current Weather Conditions
Denver, Colorado
Clear
Clear
11°
Feels Like: -3°
Wind Chill: -3° Ceiling: Unl
Heat Index: 11° Visibility: 10mi
Dew Point: Wind: 12mph
Humidity: 67% Direction: 180° (S)
Pressure: 30.16in Gusts: 0mph
Raw Report DataKBKF 050958Z 18010KT 10SM CLR M12/M17 A3016 RMK AO2A SLP276 T11171167
Traffic Incident Summary
Active as of:
Severity:
Category:
InformationThere was an issue retrieving the traffic information for this location. Please try a different location or try again shortly.
Advertisements
Track Severe Weather on mobile